Terminal Aerodrome Forecast
Issued by NWS

Home | Current Version | Previous Version | Text Only | Print | Product List | Glossary Off
Versions: 1 2 3 4 5 6 7 8 9 10 11 12 13 14

000
FTUS45 KGGW 220520
TAFOLF
TAF
KOLF 220520Z 2206/2306 24005KT P6SM SKC
     FM221500 22007KT P6SM OVC060 WS020/25035KT
     FM222100 27026G35KT P6SM VCSH BKN080
     FM230300 28017G28KT P6SM SCT080 WS020/29045KT=

USA.gov is the U.S. government's official web portal to all federal, state and local government web resources and services.